sensor_id;sensor_type;location;lat;lon;timestamp;P1;durP1;ratioP1;P2;durP2;ratioP2
14272;SDS011;7220;49.450;11.052;2023-09-19T00:01:20;1.20;;;1.10;;
14272;SDS011;7220;49.450;11.052;2023-09-19T00:05:20;1.42;;;1.33;;
14272;SDS011;7220;49.450;11.052;2023-09-19T00:09:25;1.77;;;1.00;;
14272;SDS011;7220;49.450;11.052;2023-09-19T00:13:28;1.23;;;1.10;;
14272;SDS011;7220;49.450;11.052;2023-09-19T00:17:28;1.13;;;1.02;;
14272;SDS011;7220;49.450;11.052;2023-09-19T00:21:31;1.52;;;1.30;;
14272;SDS011;7220;49.450;11.052;2023-09-19T00:25:32;1.20;;;1.10;;
14272;SDS011;7220;49.450;11.052;2023-09-19T00:29:32;2.58;;;1.35;;
14272;SDS011;7220;49.450;11.052;2023-09-19T00:33:32;1.67;;;1.33;;
14272;SDS011;7220;49.450;11.052;2023-09-19T00:37:34;3.35;;;1.40;;
14272;SDS011;7220;49.450;11.052;2023-09-19T00:41:34;2.00;;;1.70;;
14272;SDS011;7220;49.450;11.052;2023-09-19T00:45:38;1.45;;;1.35;;
14272;SDS011;7220;49.450;11.052;2023-09-19T00:49:43;2.15;;;1.45;;
14272;SDS011;7220;49.450;11.052;2023-09-19T00:53:49;1.30;;;1.20;;
14272;SDS011;7220;49.450;11.052;2023-09-19T00:57:50;2.60;;;1.70;;
14272;SDS011;7220;49.450;11.052;2023-09-19T01:01:50;1.33;;;1.23;;
14272;SDS011;7220;49.450;11.052;2023-09-19T01:05:53;1.77;;;1.67;;
14272;SDS011;7220;49.450;11.052;2023-09-19T01:09:54;1.60;;;1.45;;
14272;SDS011;7220;49.450;11.052;2023-09-19T01:14:03;1.35;;;1.23;;
14272;SDS011;7220;49.450;11.052;2023-09-19T01:22:28;1.48;;;1.25;;
14272;SDS011;7220;49.450;11.052;2023-09-19T01:31:02;1.25;;;1.15;;
14272;SDS011;7220;49.450;11.052;2023-09-19T01:35:03;2.92;;;1.75;;
14272;SDS011;7220;49.450;11.052;2023-09-19T01:39:07;1.48;;;1.35;;
14272;SDS011;7220;49.450;11.052;2023-09-19T01:47:23;1.48;;;1.38;;
14272;SDS011;7220;49.450;11.052;2023-09-19T01:51:44;1.00;;;1.00;;
14272;SDS011;7220;49.450;11.052;2023-09-19T01:55:51;0.98;;;0.88;;
14272;SDS011;7220;49.450;11.052;2023-09-19T02:00:03;1.05;;;0.90;;
14272;SDS011;7220;49.450;11.052;2023-09-19T02:04:07;0.93;;;0.90;;
14272;SDS011;7220;49.450;11.052;2023-09-19T02:08:07;1.27;;;1.05;;
14272;SDS011;7220;49.450;11.052;2023-09-19T02:12:08;1.38;;;1.27;;
14272;SDS011;7220;49.450;11.052;2023-09-19T02:16:09;0.80;;;0.80;;
14272;SDS011;7220;49.450;11.052;2023-09-19T02:20:11;0.88;;;0.88;;
14272;SDS011;7220;49.450;11.052;2023-09-19T02:24:15;1.08;;;1.08;;
14272;SDS011;7220;49.450;11.052;2023-09-19T02:28:15;0.88;;;0.88;;
14272;SDS011;7220;49.450;11.052;2023-09-19T02:32:16;0.95;;;0.95;;
14272;SDS011;7220;49.450;11.052;2023-09-19T02:36:18;1.20;;;0.95;;
14272;SDS011;7220;49.450;11.052;2023-09-19T02:40:18;0.80;;;0.80;;
14272;SDS011;7220;49.450;11.052;2023-09-19T02:44:18;0.73;;;0.73;;
14272;SDS011;7220;49.450;11.052;2023-09-19T02:48:20;0.98;;;0.80;;
14272;SDS011;7220;49.450;11.052;2023-09-19T02:52:20;0.80;;;0.70;;
14272;SDS011;7220;49.450;11.052;2023-09-19T02:56:21;0.82;;;0.82;;
14272;SDS011;7220;49.450;11.052;2023-09-19T03:00:22;2.33;;;1.00;;
14272;SDS011;7220;49.450;11.052;2023-09-19T03:04:23;0.88;;;0.80;;
14272;SDS011;7220;49.450;11.052;2023-09-19T03:08:24;1.08;;;0.75;;
14272;SDS011;7220;49.450;11.052;2023-09-19T03:12:25;0.80;;;0.80;;
14272;SDS011;7220;49.450;11.052;2023-09-19T03:16:26;0.73;;;0.73;;
14272;SDS011;7220;49.450;11.052;2023-09-19T03:20:26;0.82;;;0.82;;
14272;SDS011;7220;49.450;11.052;2023-09-19T03:24:27;0.73;;;0.73;;
14272;SDS011;7220;49.450;11.052;2023-09-19T03:28:29;0.70;;;0.70;;
14272;SDS011;7220;49.450;11.052;2023-09-19T03:32:29;1.92;;;0.80;;
14272;SDS011;7220;49.450;11.052;2023-09-19T03:36:30;1.00;;;1.00;;
14272;SDS011;7220;49.450;11.052;2023-09-19T03:40:30;0.80;;;0.80;;
14272;SDS011;7220;49.450;11.052;2023-09-19T03:44:31;1.00;;;0.90;;
14272;SDS011;7220;49.450;11.052;2023-09-19T03:48:31;1.30;;;1.20;;
14272;SDS011;7220;49.450;11.052;2023-09-19T03:52:31;0.80;;;0.80;;
14272;SDS011;7220;49.450;11.052;2023-09-19T03:56:32;1.10;;;1.00;;
14272;SDS011;7220;49.450;11.052;2023-09-19T04:00:32;2.55;;;0.80;;
14272;SDS011;7220;49.450;11.052;2023-09-19T04:04:34;0.90;;;0.90;;
14272;SDS011;7220;49.450;11.052;2023-09-19T04:08:34;0.82;;;0.75;;
14272;SDS011;7220;49.450;11.052;2023-09-19T04:12:35;1.02;;;0.93;;
14272;SDS011;7220;49.450;11.052;2023-09-19T04:16:35;0.90;;;0.90;;
14272;SDS011;7220;49.450;11.052;2023-09-19T04:20:35;1.58;;;0.70;;
14272;SDS011;7220;49.450;11.052;2023-09-19T04:24:36;0.90;;;0.88;;
14272;SDS011;7220;49.450;11.052;2023-09-19T04:28:37;2.40;;;1.00;;
14272;SDS011;7220;49.450;11.052;2023-09-19T04:32:38;0.98;;;0.98;;
14272;SDS011;7220;49.450;11.052;2023-09-19T04:36:42;1.30;;;1.20;;
14272;SDS011;7220;49.450;11.052;2023-09-19T04:40:43;0.98;;;0.98;;
14272;SDS011;7220;49.450;11.052;2023-09-19T04:44:43;0.88;;;0.88;;
14272;SDS011;7220;49.450;11.052;2023-09-19T04:48:44;1.42;;;1.20;;
14272;SDS011;7220;49.450;11.052;2023-09-19T04:52:44;2.35;;;1.20;;
14272;SDS011;7220;49.450;11.052;2023-09-19T04:56:45;1.00;;;1.00;;
14272;SDS011;7220;49.450;11.052;2023-09-19T05:00:45;0.88;;;0.82;;
14272;SDS011;7220;49.450;11.052;2023-09-19T05:04:46;1.10;;;1.10;;
14272;SDS011;7220;49.450;11.052;2023-09-19T05:08:46;1.00;;;0.90;;
14272;SDS011;7220;49.450;11.052;2023-09-19T05:12:53;1.05;;;1.02;;
14272;SDS011;7220;49.450;11.052;2023-09-19T05:16:54;1.10;;;1.00;;
14272;SDS011;7220;49.450;11.052;2023-09-19T05:20:54;0.95;;;0.90;;
14272;SDS011;7220;49.450;11.052;2023-09-19T05:24:56;1.17;;;1.05;;
14272;SDS011;7220;49.450;11.052;2023-09-19T05:28:56;1.03;;;0.90;;
14272;SDS011;7220;49.450;11.052;2023-09-19T05:32:56;1.20;;;1.10;;
14272;SDS011;7220;49.450;11.052;2023-09-19T05:36:57;1.13;;;1.10;;
14272;SDS011;7220;49.450;11.052;2023-09-19T05:40:57;1.35;;;1.00;;
14272;SDS011;7220;49.450;11.052;2023-09-19T05:44:58;1.08;;;1.05;;
14272;SDS011;7220;49.450;11.052;2023-09-19T05:48:58;1.55;;;1.40;;
14272;SDS011;7220;49.450;11.052;2023-09-19T05:52:59;0.95;;;0.95;;
14272;SDS011;7220;49.450;11.052;2023-09-19T05:56:59;1.85;;;1.23;;
14272;SDS011;7220;49.450;11.052;2023-09-19T06:01:01;1.13;;;1.10;;
14272;SDS011;7220;49.450;11.052;2023-09-19T06:05:02;1.08;;;1.08;;
14272;SDS011;7220;49.450;11.052;2023-09-19T06:09:03;2.08;;;1.00;;
14272;SDS011;7220;49.450;11.052;2023-09-19T06:13:05;1.10;;;1.00;;
14272;SDS011;7220;49.450;11.052;2023-09-19T06:17:06;0.90;;;0.90;;
14272;SDS011;7220;49.450;11.052;2023-09-19T06:21:06;1.02;;;0.95;;
14272;SDS011;7220;49.450;11.052;2023-09-19T06:25:07;1.00;;;0.90;;
14272;SDS011;7220;49.450;11.052;2023-09-19T06:29:11;0.80;;;0.80;;
14272;SDS011;7220;49.450;11.052;2023-09-19T06:33:14;1.17;;;1.02;;
14272;SDS011;7220;49.450;11.052;2023-09-19T06:37:15;1.85;;;1.20;;
14272;SDS011;7220;49.450;11.052;2023-09-19T06:41:16;0.98;;;0.93;;
14272;SDS011;7220;49.450;11.052;2023-09-19T06:45:17;1.60;;;0.98;;
14272;SDS011;7220;49.450;11.052;2023-09-19T06:49:18;1.27;;;1.17;;
14272;SDS011;7220;49.450;11.052;2023-09-19T06:53:19;1.08;;;0.98;;
14272;SDS011;7220;49.450;11.052;2023-09-19T06:57:19;1.55;;;1.02;;
14272;SDS011;7220;49.450;11.052;2023-09-19T07:01:20;1.20;;;1.10;;
14272;SDS011;7220;49.450;11.052;2023-09-19T07:05:20;3.05;;;1.30;;
14272;SDS011;7220;49.450;11.052;2023-09-19T07:09:21;1.20;;;1.13;;
14272;SDS011;7220;49.450;11.052;2023-09-19T07:13:22;1.27;;;1.23;;
14272;SDS011;7220;49.450;11.052;2023-09-19T07:17:22;1.30;;;1.20;;
14272;SDS011;7220;49.450;11.052;2023-09-19T07:21:24;1.30;;;1.20;;
14272;SDS011;7220;49.450;11.052;2023-09-19T07:25:24;1.20;;;1.10;;
14272;SDS011;7220;49.450;11.052;2023-09-19T07:29:25;1.10;;;1.00;;
14272;SDS011;7220;49.450;11.052;2023-09-19T07:33:26;1.20;;;1.10;;
14272;SDS011;7220;49.450;11.052;2023-09-19T07:37:29;1.13;;;1.13;;
14272;SDS011;7220;49.450;11.052;2023-09-19T07:41:31;1.00;;;1.00;;
14272;SDS011;7220;49.450;11.052;2023-09-19T07:45:32;1.38;;;1.17;;
14272;SDS011;7220;49.450;11.052;2023-09-19T07:49:33;2.15;;;1.25;;
14272;SDS011;7220;49.450;11.052;2023-09-19T07:53:34;1.52;;;1.02;;
14272;SDS011;7220;49.450;11.052;2023-09-19T07:57:35;2.40;;;1.52;;
14272;SDS011;7220;49.450;11.052;2023-09-19T08:01:36;1.33;;;1.23;;
14272;SDS011;7220;49.450;11.052;2023-09-19T08:05:37;1.63;;;1.30;;
14272;SDS011;7220;49.450;11.052;2023-09-19T08:09:38;1.30;;;1.00;;
14272;SDS011;7220;49.450;11.052;2023-09-19T08:13:39;1.40;;;1.00;;
14272;SDS011;7220;49.450;11.052;2023-09-19T08:17:48;1.73;;;1.25;;
14272;SDS011;7220;49.450;11.052;2023-09-19T08:21:50;1.38;;;1.27;;
14272;SDS011;7220;49.450;11.052;2023-09-19T08:25:50;1.23;;;1.13;;
14272;SDS011;7220;49.450;11.052;2023-09-19T08:29:55;1.90;;;1.08;;
14272;SDS011;7220;49.450;11.052;2023-09-19T08:33:56;1.17;;;0.93;;
14272;SDS011;7220;49.450;11.052;2023-09-19T08:37:56;1.60;;;1.20;;
14272;SDS011;7220;49.450;11.052;2023-09-19T08:42:00;1.20;;;1.10;;
14272;SDS011;7220;49.450;11.052;2023-09-19T08:46:09;1.70;;;1.25;;
14272;SDS011;7220;49.450;11.052;2023-09-19T08:50:23;1.08;;;0.98;;
14272;SDS011;7220;49.450;11.052;2023-09-19T08:54:28;1.17;;;1.02;;
14272;SDS011;7220;49.450;11.052;2023-09-19T08:58:42;1.60;;;1.27;;
14272;SDS011;7220;49.450;11.052;2023-09-19T09:02:53;2.00;;;1.05;;
14272;SDS011;7220;49.450;11.052;2023-09-19T09:06:55;1.52;;;1.30;;
14272;SDS011;7220;49.450;11.052;2023-09-19T09:10:56;1.00;;;1.00;;
14272;SDS011;7220;49.450;11.052;2023-09-19T09:14:57;0.95;;;0.95;;
14272;SDS011;7220;49.450;11.052;2023-09-19T09:18:58;1.25;;;1.15;;
14272;SDS011;7220;49.450;11.052;2023-09-19T09:22:58;1.15;;;1.02;;
14272;SDS011;7220;49.450;11.052;2023-09-19T09:27:00;1.63;;;1.27;;
14272;SDS011;7220;49.450;11.052;2023-09-19T09:31:05;0.82;;;0.82;;
14272;SDS011;7220;49.450;11.052;2023-09-19T09:35:08;1.05;;;1.02;;
14272;SDS011;7220;49.450;11.052;2023-09-19T09:39:10;1.02;;;0.80;;
14272;SDS011;7220;49.450;11.052;2023-09-19T09:43:32;1.13;;;0.90;;
14272;SDS011;7220;49.450;11.052;2023-09-19T09:47:41;1.02;;;0.93;;
14272;SDS011;7220;49.450;11.052;2023-09-19T09:52:01;1.08;;;1.00;;
14272;SDS011;7220;49.450;11.052;2023-09-19T09:56:07;0.90;;;0.90;;
14272;SDS011;7220;49.450;11.052;2023-09-19T10:00:13;0.80;;;0.80;;
14272;SDS011;7220;49.450;11.052;2023-09-19T10:04:26;0.80;;;0.80;;
14272;SDS011;7220;49.450;11.052;2023-09-19T10:08:36;2.05;;;0.93;;
14272;SDS011;7220;49.450;11.052;2023-09-19T10:12:42;0.82;;;0.82;;
14272;SDS011;7220;49.450;11.052;2023-09-19T10:16:47;1.10;;;1.00;;
14272;SDS011;7220;49.450;11.052;2023-09-19T10:20:48;1.13;;;1.08;;
14272;SDS011;7220;49.450;11.052;2023-09-19T10:24:51;2.38;;;1.08;;
14272;SDS011;7220;49.450;11.052;2023-09-19T10:28:53;1.00;;;1.00;;
14272;SDS011;7220;49.450;11.052;2023-09-19T10:33:02;1.52;;;1.08;;
14272;SDS011;7220;49.450;11.052;2023-09-19T10:37:03;2.33;;;1.20;;
14272;SDS011;7220;49.450;11.052;2023-09-19T10:41:09;1.02;;;1.00;;
14272;SDS011;7220;49.450;11.052;2023-09-19T10:45:10;1.00;;;1.00;;
14272;SDS011;7220;49.450;11.052;2023-09-19T10:49:14;1.58;;;1.23;;
14272;SDS011;7220;49.450;11.052;2023-09-19T10:53:14;2.58;;;1.10;;
14272;SDS011;7220;49.450;11.052;2023-09-19T10:57:23;2.47;;;0.95;;
14272;SDS011;7220;49.450;11.052;2023-09-19T11:01:37;1.08;;;1.08;;
14272;SDS011;7220;49.450;11.052;2023-09-19T11:10:05;1.23;;;1.10;;
14272;SDS011;7220;49.450;11.052;2023-09-19T11:27:14;2.03;;;1.52;;
14272;SDS011;7220;49.450;11.052;2023-09-19T11:40:06;0.85;;;0.85;;
14272;SDS011;7220;49.450;11.052;2023-09-19T11:48:18;1.23;;;1.13;;
14272;SDS011;7220;49.450;11.052;2023-09-19T11:52:21;0.68;;;0.68;;
14272;SDS011;7220;49.450;11.052;2023-09-19T11:56:24;0.98;;;0.98;;
14272;SDS011;7220;49.450;11.052;2023-09-19T12:00:27;1.23;;;1.08;;
14272;SDS011;7220;49.450;11.052;2023-09-19T12:04:35;0.70;;;0.70;;
14272;SDS011;7220;49.450;11.052;2023-09-19T12:08:39;1.52;;;1.00;;
14272;SDS011;7220;49.450;11.052;2023-09-19T12:12:47;1.13;;;1.02;;
14272;SDS011;7220;49.450;11.052;2023-09-19T12:16:52;2.63;;;1.48;;
14272;SDS011;7220;49.450;11.052;2023-09-19T12:20:55;1.40;;;0.95;;
14272;SDS011;7220;49.450;11.052;2023-09-19T12:25:05;0.80;;;0.80;;
14272;SDS011;7220;49.450;11.052;2023-09-19T12:29:10;0.95;;;0.95;;
14272;SDS011;7220;49.450;11.052;2023-09-19T12:33:19;0.70;;;0.70;;
14272;SDS011;7220;49.450;11.052;2023-09-19T12:37:21;1.02;;;0.68;;
14272;SDS011;7220;49.450;11.052;2023-09-19T12:41:30;0.73;;;0.73;;
14272;SDS011;7220;49.450;11.052;2023-09-19T12:45:31;0.90;;;0.77;;
14272;SDS011;7220;49.450;11.052;2023-09-19T12:49:35;1.85;;;0.80;;
14272;SDS011;7220;49.450;11.052;2023-09-19T12:53:42;0.68;;;0.68;;
14272;SDS011;7220;49.450;11.052;2023-09-19T12:57:55;0.75;;;0.73;;
14272;SDS011;7220;49.450;11.052;2023-09-19T13:02:03;0.60;;;0.60;;
14272;SDS011;7220;49.450;11.052;2023-09-19T13:06:07;1.13;;;1.02;;
14272;SDS011;7220;49.450;11.052;2023-09-19T13:10:09;1.15;;;0.82;;
14272;SDS011;7220;49.450;11.052;2023-09-19T13:18:13;1.58;;;1.08;;
14272;SDS011;7220;49.450;11.052;2023-09-19T13:26:45;0.80;;;0.80;;
14272;SDS011;7220;49.450;11.052;2023-09-19T13:30:46;1.05;;;0.90;;
14272;SDS011;7220;49.450;11.052;2023-09-19T13:34:48;1.52;;;0.68;;
14272;SDS011;7220;49.450;11.052;2023-09-19T13:38:48;1.60;;;0.77;;
14272;SDS011;7220;49.450;11.052;2023-09-19T13:42:49;1.35;;;0.95;;
14272;SDS011;7220;49.450;11.052;2023-09-19T13:46:53;2.05;;;1.23;;
14272;SDS011;7220;49.450;11.052;2023-09-19T13:50:56;1.38;;;0.82;;
14272;SDS011;7220;49.450;11.052;2023-09-19T13:54:57;1.17;;;0.73;;
14272;SDS011;7220;49.450;11.052;2023-09-19T13:59:00;1.00;;;0.90;;
14272;SDS011;7220;49.450;11.052;2023-09-19T14:03:00;0.70;;;0.60;;
14272;SDS011;7220;49.450;11.052;2023-09-19T14:07:01;0.98;;;0.95;;
14272;SDS011;7220;49.450;11.052;2023-09-19T14:11:05;1.05;;;0.80;;
14272;SDS011;7220;49.450;11.052;2023-09-19T14:15:07;1.02;;;0.93;;
14272;SDS011;7220;49.450;11.052;2023-09-19T14:19:08;0.70;;;0.70;;
14272;SDS011;7220;49.450;11.052;2023-09-19T14:23:09;0.60;;;0.60;;
14272;SDS011;7220;49.450;11.052;2023-09-19T14:27:09;1.45;;;1.08;;
14272;SDS011;7220;49.450;11.052;2023-09-19T14:31:11;0.90;;;0.85;;
14272;SDS011;7220;49.450;11.052;2023-09-19T14:35:11;1.13;;;0.80;;
14272;SDS011;7220;49.450;11.052;2023-09-19T14:39:13;1.17;;;0.95;;
14272;SDS011;7220;49.450;11.052;2023-09-19T14:43:14;1.85;;;0.90;;
14272;SDS011;7220;49.450;11.052;2023-09-19T14:47:14;1.33;;;1.03;;
14272;SDS011;7220;49.450;11.052;2023-09-19T14:51:16;0.98;;;0.90;;
14272;SDS011;7220;49.450;11.052;2023-09-19T14:55:18;1.10;;;0.95;;
14272;SDS011;7220;49.450;11.052;2023-09-19T14:59:20;1.25;;;0.90;;
14272;SDS011;7220;49.450;11.052;2023-09-19T15:03:20;0.88;;;0.70;;
14272;SDS011;7220;49.450;11.052;2023-09-19T15:07:21;2.00;;;0.80;;
14272;SDS011;7220;49.450;11.052;2023-09-19T15:11:21;1.75;;;1.00;;
14272;SDS011;7220;49.450;11.052;2023-09-19T15:15:22;0.73;;;0.73;;
14272;SDS011;7220;49.450;11.052;2023-09-19T15:19:22;0.95;;;0.93;;
14272;SDS011;7220;49.450;11.052;2023-09-19T15:23:23;1.73;;;0.65;;
14272;SDS011;7220;49.450;11.052;2023-09-19T15:27:23;1.13;;;1.08;;
14272;SDS011;7220;49.450;11.052;2023-09-19T15:31:23;0.77;;;0.77;;
14272;SDS011;7220;49.450;11.052;2023-09-19T15:35:24;0.95;;;0.90;;
14272;SDS011;7220;49.450;11.052;2023-09-19T15:39:25;2.28;;;0.90;;
14272;SDS011;7220;49.450;11.052;2023-09-19T15:43:25;1.60;;;0.60;;
14272;SDS011;7220;49.450;11.052;2023-09-19T15:47:25;0.70;;;0.70;;
14272;SDS011;7220;49.450;11.052;2023-09-19T15:51:27;1.27;;;0.98;;
14272;SDS011;7220;49.450;11.052;2023-09-19T15:55:28;0.70;;;0.70;;
14272;SDS011;7220;49.450;11.052;2023-09-19T15:59:29;0.68;;;0.68;;
14272;SDS011;7220;49.450;11.052;2023-09-19T16:03:30;0.88;;;0.82;;
14272;SDS011;7220;49.450;11.052;2023-09-19T16:07:31;0.88;;;0.88;;
14272;SDS011;7220;49.450;11.052;2023-09-19T16:11:33;1.00;;;0.77;;
14272;SDS011;7220;49.450;11.052;2023-09-19T16:15:41;0.80;;;0.70;;
14272;SDS011;7220;49.450;11.052;2023-09-19T16:19:43;0.73;;;0.60;;
14272;SDS011;7220;49.450;11.052;2023-09-19T16:23:47;1.25;;;1.00;;
14272;SDS011;7220;49.450;11.052;2023-09-19T16:27:49;2.00;;;0.80;;
14272;SDS011;7220;49.450;11.052;2023-09-19T16:31:50;1.42;;;0.90;;
14272;SDS011;7220;49.450;11.052;2023-09-19T16:35:52;1.15;;;0.88;;
14272;SDS011;7220;49.450;11.052;2023-09-19T16:39:52;1.30;;;1.00;;
14272;SDS011;7220;49.450;11.052;2023-09-19T16:43:53;0.80;;;0.80;;
14272;SDS011;7220;49.450;11.052;2023-09-19T16:47:53;0.73;;;0.73;;
14272;SDS011;7220;49.450;11.052;2023-09-19T16:51:55;1.17;;;0.98;;
14272;SDS011;7220;49.450;11.052;2023-09-19T16:56:00;0.90;;;0.90;;
14272;SDS011;7220;49.450;11.052;2023-09-19T17:00:03;1.45;;;0.70;;
14272;SDS011;7220;49.450;11.052;2023-09-19T17:04:04;0.73;;;0.73;;
14272;SDS011;7220;49.450;11.052;2023-09-19T17:08:09;1.67;;;1.38;;
14272;SDS011;7220;49.450;11.052;2023-09-19T17:12:09;0.95;;;0.88;;
14272;SDS011;7220;49.450;11.052;2023-09-19T17:16:14;0.90;;;0.90;;
14272;SDS011;7220;49.450;11.052;2023-09-19T17:20:20;0.73;;;0.73;;
14272;SDS011;7220;49.450;11.052;2023-09-19T17:24:20;1.38;;;1.02;;
14272;SDS011;7220;49.450;11.052;2023-09-19T17:28:20;2.00;;;1.10;;
14272;SDS011;7220;49.450;11.052;2023-09-19T17:32:21;0.90;;;0.90;;
14272;SDS011;7220;49.450;11.052;2023-09-19T17:36:22;1.23;;;1.10;;
14272;SDS011;7220;49.450;11.052;2023-09-19T17:40:23;1.35;;;1.05;;
14272;SDS011;7220;49.450;11.052;2023-09-19T17:44:24;2.00;;;1.27;;
14272;SDS011;7220;49.450;11.052;2023-09-19T17:48:24;2.45;;;1.38;;
14272;SDS011;7220;49.450;11.052;2023-09-19T17:52:25;2.33;;;1.80;;
14272;SDS011;7220;49.450;11.052;2023-09-19T17:56:27;3.60;;;1.40;;
14272;SDS011;7220;49.450;11.052;2023-09-19T18:00:28;2.53;;;1.60;;
14272;SDS011;7220;49.450;11.052;2023-09-19T18:04:28;1.63;;;1.40;;
14272;SDS011;7220;49.450;11.052;2023-09-19T18:08:29;1.13;;;1.02;;
14272;SDS011;7220;49.450;11.052;2023-09-19T18:12:29;1.13;;;1.13;;
14272;SDS011;7220;49.450;11.052;2023-09-19T18:16:30;1.50;;;1.40;;
14272;SDS011;7220;49.450;11.052;2023-09-19T18:20:34;3.92;;;1.60;;
14272;SDS011;7220;49.450;11.052;2023-09-19T18:24:34;1.95;;;1.50;;
14272;SDS011;7220;49.450;11.052;2023-09-19T18:28:35;1.35;;;1.20;;
14272;SDS011;7220;49.450;11.052;2023-09-19T18:32:37;1.52;;;1.40;;
14272;SDS011;7220;49.450;11.052;2023-09-19T18:36:37;2.30;;;1.75;;
14272;SDS011;7220;49.450;11.052;2023-09-19T18:40:42;2.17;;;1.73;;
14272;SDS011;7220;49.450;11.052;2023-09-19T18:44:43;2.42;;;1.90;;
14272;SDS011;7220;49.450;11.052;2023-09-19T18:48:45;1.65;;;1.45;;
14272;SDS011;7220;49.450;11.052;2023-09-19T18:52:46;2.28;;;1.65;;
14272;SDS011;7220;49.450;11.052;2023-09-19T18:56:47;4.03;;;2.05;;
14272;SDS011;7220;49.450;11.052;2023-09-19T19:00:47;2.13;;;1.83;;
14272;SDS011;7220;49.450;11.052;2023-09-19T19:04:50;1.98;;;1.73;;
14272;SDS011;7220;49.450;11.052;2023-09-19T19:08:51;1.95;;;1.75;;
14272;SDS011;7220;49.450;11.052;2023-09-19T19:12:52;2.55;;;1.90;;
14272;SDS011;7220;49.450;11.052;2023-09-19T19:16:53;1.90;;;1.60;;
14272;SDS011;7220;49.450;11.052;2023-09-19T19:21:13;4.53;;;2.08;;
14272;SDS011;7220;49.450;11.052;2023-09-19T19:25:16;1.63;;;1.45;;
14272;SDS011;7220;49.450;11.052;2023-09-19T19:29:16;5.10;;;1.55;;
14272;SDS011;7220;49.450;11.052;2023-09-19T19:33:17;2.20;;;1.65;;
14272;SDS011;7220;49.450;11.052;2023-09-19T19:37:21;3.78;;;2.45;;
14272;SDS011;7220;49.450;11.052;2023-09-19T19:41:22;2.45;;;1.90;;
14272;SDS011;7220;49.450;11.052;2023-09-19T19:45:22;2.63;;;1.77;;
14272;SDS011;7220;49.450;11.052;2023-09-19T19:49:23;3.90;;;2.20;;
14272;SDS011;7220;49.450;11.052;2023-09-19T19:53:26;2.08;;;1.70;;
14272;SDS011;7220;49.450;11.052;2023-09-19T19:57:26;2.13;;;1.70;;
14272;SDS011;7220;49.450;11.052;2023-09-19T20:01:27;1.63;;;1.50;;
14272;SDS011;7220;49.450;11.052;2023-09-19T20:05:27;2.13;;;1.90;;
14272;SDS011;7220;49.450;11.052;2023-09-19T20:09:27;3.97;;;1.63;;
14272;SDS011;7220;49.450;11.052;2023-09-19T20:13:28;2.93;;;1.93;;
14272;SDS011;7220;49.450;11.052;2023-09-19T20:17:28;4.00;;;1.70;;
14272;SDS011;7220;49.450;11.052;2023-09-19T20:21:29;2.83;;;2.42;;
14272;SDS011;7220;49.450;11.052;2023-09-19T20:25:30;2.33;;;1.70;;
14272;SDS011;7220;49.450;11.052;2023-09-19T20:29:34;6.25;;;2.20;;
14272;SDS011;7220;49.450;11.052;2023-09-19T20:33:35;3.15;;;2.08;;
14272;SDS011;7220;49.450;11.052;2023-09-19T20:37:37;3.28;;;2.08;;
14272;SDS011;7220;49.450;11.052;2023-09-19T20:41:38;3.77;;;2.03;;
14272;SDS011;7220;49.450;11.052;2023-09-19T20:45:38;3.83;;;2.30;;
14272;SDS011;7220;49.450;11.052;2023-09-19T20:49:40;2.42;;;1.88;;
14272;SDS011;7220;49.450;11.052;2023-09-19T20:53:41;2.03;;;1.70;;
14272;SDS011;7220;49.450;11.052;2023-09-19T20:57:44;2.17;;;1.88;;
14272;SDS011;7220;49.450;11.052;2023-09-19T21:01:44;2.67;;;1.63;;
14272;SDS011;7220;49.450;11.052;2023-09-19T21:05:46;1.92;;;1.83;;
14272;SDS011;7220;49.450;11.052;2023-09-19T21:09:47;2.42;;;1.70;;
14272;SDS011;7220;49.450;11.052;2023-09-19T21:13:47;1.70;;;1.52;;
14272;SDS011;7220;49.450;11.052;2023-09-19T21:17:49;2.65;;;1.88;;
14272;SDS011;7220;49.450;11.052;2023-09-19T21:21:50;1.63;;;1.52;;
14272;SDS011;7220;49.450;11.052;2023-09-19T21:25:54;4.38;;;1.65;;
14272;SDS011;7220;49.450;11.052;2023-09-19T21:29:54;2.15;;;1.63;;
14272;SDS011;7220;49.450;11.052;2023-09-19T21:33:54;3.22;;;2.03;;
14272;SDS011;7220;49.450;11.052;2023-09-19T21:37:55;2.85;;;1.70;;
14272;SDS011;7220;49.450;11.052;2023-09-19T21:41:55;3.30;;;1.80;;
14272;SDS011;7220;49.450;11.052;2023-09-19T21:45:56;2.35;;;1.67;;
14272;SDS011;7220;49.450;11.052;2023-09-19T21:49:56;1.60;;;1.45;;
14272;SDS011;7220;49.450;11.052;2023-09-19T21:53:57;3.00;;;1.80;;
14272;SDS011;7220;49.450;11.052;2023-09-19T21:57:58;2.38;;;1.63;;
14272;SDS011;7220;49.450;11.052;2023-09-19T22:01:58;2.17;;;1.95;;
14272;SDS011;7220;49.450;11.052;2023-09-19T22:06:05;2.55;;;1.85;;
14272;SDS011;7220;49.450;11.052;2023-09-19T22:10:10;2.00;;;1.80;;
14272;SDS011;7220;49.450;11.052;2023-09-19T22:14:10;2.28;;;1.92;;
14272;SDS011;7220;49.450;11.052;2023-09-19T22:18:11;2.40;;;2.10;;
14272;SDS011;7220;49.450;11.052;2023-09-19T22:22:12;2.00;;;1.80;;
14272;SDS011;7220;49.450;11.052;2023-09-19T22:26:14;2.13;;;1.88;;
14272;SDS011;7220;49.450;11.052;2023-09-19T22:30:18;3.10;;;1.92;;
14272;SDS011;7220;49.450;11.052;2023-09-19T22:34:19;1.98;;;1.88;;
14272;SDS011;7220;49.450;11.052;2023-09-19T22:38:19;2.10;;;1.88;;
14272;SDS011;7220;49.450;11.052;2023-09-19T22:42:19;3.85;;;2.45;;
14272;SDS011;7220;49.450;11.052;2023-09-19T22:46:24;3.28;;;2.22;;
14272;SDS011;7220;49.450;11.052;2023-09-19T22:50:28;3.00;;;2.40;;
14272;SDS011;7220;49.450;11.052;2023-09-19T22:54:29;2.97;;;1.95;;
14272;SDS011;7220;49.450;11.052;2023-09-19T22:58:38;3.05;;;2.17;;
14272;SDS011;7220;49.450;11.052;2023-09-19T23:02:42;1.90;;;1.77;;
14272;SDS011;7220;49.450;11.052;2023-09-19T23:06:44;2.17;;;1.98;;
14272;SDS011;7220;49.450;11.052;2023-09-19T23:10:50;1.60;;;1.42;;
14272;SDS011;7220;49.450;11.052;2023-09-19T23:14:51;1.83;;;1.73;;
14272;SDS011;7220;49.450;11.052;2023-09-19T23:18:53;2.40;;;1.80;;
14272;SDS011;7220;49.450;11.052;2023-09-19T23:22:57;1.75;;;1.65;;
14272;SDS011;7220;49.450;11.052;2023-09-19T23:26:58;1.95;;;1.85;;
14272;SDS011;7220;49.450;11.052;2023-09-19T23:30:58;3.33;;;2.25;;
14272;SDS011;7220;49.450;11.052;2023-09-19T23:35:00;2.25;;;2.05;;
14272;SDS011;7220;49.450;11.052;2023-09-19T23:39:00;2.20;;;2.00;;
14272;SDS011;7220;49.450;11.052;2023-09-19T23:43:01;2.78;;;2.00;;
14272;SDS011;7220;49.450;11.052;2023-09-19T23:47:04;3.05;;;2.75;;
14272;SDS011;7220;49.450;11.052;2023-09-19T23:51:04;3.80;;;3.05;;
14272;SDS011;7220;49.450;11.052;2023-09-19T23:55:06;3.58;;;2.75;;
14272;SDS011;7220;49.450;11.052;2023-09-19T23:59:09;2.17;;;1.83;;
